createdAt,value
2022-12-15T00:02:19.500Z,4.72
2022-12-15T00:05:05.916Z,3.00
2022-12-15T00:07:52.018Z,2.90
2022-12-15T00:10:38.808Z,5.30
2022-12-15T00:13:31.963Z,3.05
2022-12-15T00:16:17.971Z,2.92
2022-12-15T00:19:03.502Z,3.20
2022-12-15T00:21:48.927Z,4.55
2022-12-15T00:24:34.909Z,2.30
2022-12-15T00:27:20.270Z,3.53
2022-12-15T00:30:05.777Z,2.38
2022-12-15T00:32:51.224Z,3.28
2022-12-15T00:35:36.742Z,2.13
2022-12-15T00:38:33.464Z,2.40
2022-12-15T00:41:03.987Z,3.95
2022-12-15T00:43:33.337Z,2.22
2022-12-15T00:46:19.358Z,2.65
2022-12-15T00:48:47.327Z,1.95
2022-12-15T00:51:15.494Z,2.10
2022-12-15T00:54:01.190Z,2.22
2022-12-15T00:56:47.378Z,1.25
2022-12-15T00:59:34.039Z,3.13
2022-12-15T01:02:21.488Z,1.98
2022-12-15T01:05:07.045Z,1.13
2022-12-15T01:07:52.754Z,1.92
2022-12-15T01:10:38.571Z,3.55
2022-12-15T01:13:24.595Z,1.65
2022-12-15T01:16:10.170Z,2.20
2022-12-15T01:18:55.748Z,1.58
2022-12-15T01:21:24.970Z,3.53
2022-12-15T01:23:52.740Z,2.45
2022-12-15T01:26:19.969Z,3.65
2022-12-15T01:28:47.025Z,2.65
2022-12-15T01:31:14.551Z,1.70
2022-12-15T01:33:43.703Z,4.53
2022-12-15T01:36:11.664Z,1.90
2022-12-15T01:38:38.759Z,1.55
2022-12-15T01:41:09.516Z,2.85
2022-12-15T01:43:39.003Z,2.33
2022-12-15T01:46:19.223Z,2.58
2022-12-15T01:48:52.661Z,3.00
2022-12-15T01:51:39.458Z,2.83
2022-12-15T01:54:32.360Z,3.83
2022-12-15T01:57:05.151Z,3.42
2022-12-15T01:59:48.815Z,3.35
2022-12-15T02:02:17.621Z,2.42
2022-12-15T02:04:45.859Z,2.50
2022-12-15T02:07:16.812Z,2.08
2022-12-15T02:09:47.096Z,3.03
2022-12-15T02:12:45.088Z,4.15
2022-12-15T02:15:27.395Z,2.00
2022-12-15T02:18:22.127Z,3.08
2022-12-15T02:20:53.197Z,1.38
2022-12-15T02:23:53.922Z,2.97
2022-12-15T02:26:41.877Z,1.20
2022-12-15T02:29:21.049Z,1.52
2022-12-15T02:31:58.792Z,5.07
2022-12-15T02:34:53.317Z,2.17
2022-12-15T02:37:26.217Z,2.05
2022-12-15T02:39:53.130Z,0.93
2022-12-15T02:42:21.090Z,1.38
2022-12-15T02:44:56.073Z,2.08
2022-12-15T02:47:22.995Z,1.85
2022-12-15T02:50:27.025Z,2.20
2022-12-15T02:53:18.695Z,3.25
2022-12-15T02:56:04.513Z,1.30
2022-12-15T02:58:47.308Z,3.38
2022-12-15T03:01:41.951Z,1.67
2022-12-15T03:04:11.940Z,3.22
2022-12-15T03:06:39.562Z,2.33
2022-12-15T03:09:06.544Z,1.13
2022-12-15T03:11:34.084Z,3.15
2022-12-15T03:14:01.037Z,2.20
2022-12-15T03:16:28.036Z,1.35
2022-12-15T03:18:55.029Z,2.00
2022-12-15T03:21:21.971Z,1.50
2022-12-15T03:23:48.893Z,2.33
2022-12-15T03:26:16.497Z,1.27
2022-12-15T03:28:43.514Z,1.17
2022-12-15T03:31:10.463Z,1.70
2022-12-15T03:33:37.402Z,1.08
2022-12-15T03:36:04.703Z,0.95
2022-12-15T03:38:31.762Z,0.70
2022-12-15T03:40:58.657Z,1.60
2022-12-15T03:43:25.607Z,1.30
2022-12-15T03:45:52.692Z,2.00
2022-12-15T03:48:19.607Z,0.73
2022-12-15T03:50:48.886Z,1.15
2022-12-15T03:53:16.186Z,2.28
2022-12-15T03:55:43.219Z,1.83
2022-12-15T03:58:10.155Z,1.92
2022-12-15T04:00:37.854Z,1.95
2022-12-15T04:07:17.265Z,1.13
2022-12-15T04:09:44.309Z,2.92
2022-12-15T04:12:12.294Z,2.75
2022-12-15T04:14:42.622Z,1.83
2022-12-15T04:17:12.657Z,2.50
2022-12-15T04:19:58.503Z,4.05
2022-12-15T04:22:25.457Z,1.60
2022-12-15T04:25:10.916Z,1.67
2022-12-15T04:28:01.334Z,1.88
2022-12-15T04:30:48.416Z,3.50
2022-12-15T04:33:34.868Z,2.08
2022-12-15T04:36:21.204Z,3.17
2022-12-15T04:39:06.551Z,0.40
2022-12-15T04:41:52.396Z,2.30
2022-12-15T04:44:37.789Z,1.58
2022-12-15T04:47:23.363Z,2.28
2022-12-15T04:50:09.231Z,2.03
2022-12-15T04:52:54.642Z,1.50
2022-12-15T04:55:40.094Z,0.77
2022-12-15T04:58:27.055Z,0.82
2022-12-15T05:01:13.302Z,2.75
2022-12-15T05:03:59.030Z,1.15
2022-12-15T05:06:44.521Z,3.58
2022-12-15T05:09:30.006Z,2.92
2022-12-15T05:12:15.541Z,1.30
2022-12-15T05:15:01.154Z,2.10
2022-12-15T05:17:47.698Z,2.33
2022-12-15T05:20:33.222Z,1.80
2022-12-15T05:23:18.657Z,1.48
2022-12-15T05:26:04.041Z,0.85
2022-12-15T05:28:50.837Z,1.98
2022-12-15T05:31:36.347Z,1.80
2022-12-15T05:34:05.723Z,0.95
2022-12-15T05:36:33.172Z,0.90
2022-12-15T05:39:00.134Z,1.38
2022-12-15T05:41:27.165Z,2.70
2022-12-15T05:43:54.165Z,2.33
2022-12-15T05:46:21.424Z,0.50
2022-12-15T05:48:48.448Z,3.30
2022-12-15T05:51:15.461Z,1.27
2022-12-15T05:53:42.821Z,5.45
2022-12-15T05:56:12.841Z,1.50
2022-12-15T05:58:45.114Z,1.23
2022-12-15T06:01:15.922Z,2.17
2022-12-15T06:03:43.443Z,0.98
2022-12-15T06:06:11.975Z,1.40
2022-12-15T06:11:07.406Z,0.93
2022-12-15T06:13:35.042Z,1.95
2022-12-15T06:16:07.964Z,1.70
2022-12-15T06:18:37.637Z,1.10
2022-12-15T06:21:07.802Z,3.05
2022-12-15T06:23:36.311Z,1.00
2022-12-15T06:26:20.635Z,2.92
2022-12-15T06:28:48.165Z,1.02
2022-12-15T06:31:16.350Z,1.65
2022-12-15T06:33:43.785Z,1.73
2022-12-15T06:36:15.599Z,3.70
2022-12-15T06:38:45.912Z,1.33
2022-12-15T06:41:18.833Z,2.90
2022-12-15T06:43:55.848Z,1.92
2022-12-15T06:46:23.839Z,2.10
2022-12-15T06:48:50.938Z,2.92
2022-12-15T06:51:18.069Z,3.50
2022-12-15T06:53:48.978Z,3.63
2022-12-15T06:56:34.176Z,2.70
2022-12-15T06:59:03.598Z,3.60
2022-12-15T07:01:31.845Z,1.75
2022-12-15T07:04:04.501Z,3.47
2022-12-15T07:06:38.984Z,2.53
2022-12-15T07:09:08.556Z,3.83
2022-12-15T07:11:36.076Z,3.85
2022-12-15T07:14:03.388Z,1.70
2022-12-15T07:16:31.229Z,1.92
2022-12-15T07:18:58.599Z,1.67
2022-12-15T07:21:25.708Z,2.90
2022-12-15T07:23:55.325Z,2.63
2022-12-15T07:26:23.911Z,3.47
2022-12-15T07:28:51.161Z,2.35
2022-12-15T07:31:18.241Z,2.00
2022-12-15T07:33:45.513Z,1.88
2022-12-15T07:36:13.293Z,2.28
2022-12-15T07:38:40.315Z,1.38
2022-12-15T07:41:09.534Z,0.63
2022-12-15T07:43:37.376Z,1.30
2022-12-15T07:46:05.338Z,2.45
2022-12-15T07:48:33.107Z,1.33
2022-12-15T07:51:15.297Z,1.80
2022-12-15T07:53:44.410Z,3.22
2022-12-15T07:56:11.551Z,1.35
2022-12-15T07:58:39.076Z,2.35
2022-12-15T08:01:08.367Z,1.95
2022-12-15T08:03:36.923Z,1.77
2022-12-15T08:06:10.304Z,2.92
2022-12-15T08:08:37.880Z,1.88
2022-12-15T08:11:10.525Z,2.17
2022-12-15T08:14:01.811Z,2.97
2022-12-15T08:16:25.962Z,1.75
2022-12-15T08:18:53.263Z,1.42
2022-12-15T08:21:20.339Z,2.63
2022-12-15T08:23:47.926Z,1.25
2022-12-15T08:26:17.124Z,2.45
2022-12-15T08:28:45.073Z,1.67
2022-12-15T08:31:16.742Z,1.90
2022-12-15T08:33:44.788Z,1.65
2022-12-15T08:36:14.189Z,1.85
2022-12-15T08:38:42.369Z,2.05
2022-12-15T08:41:11.685Z,1.48
2022-12-15T08:43:45.752Z,2.25
2022-12-15T08:46:16.930Z,3.67
2022-12-15T08:48:44.526Z,1.92
2022-12-15T08:51:12.155Z,2.28
2022-12-15T08:53:39.319Z,2.17
2022-12-15T08:56:12.373Z,1.50
2022-12-15T08:58:40.184Z,5.90
2022-12-15T09:01:22.497Z,4.40
2022-12-15T09:03:51.967Z,1.27
2022-12-15T09:06:23.370Z,3.20
2022-12-15T09:08:50.706Z,2.47
2022-12-15T09:11:18.149Z,3.35
2022-12-15T09:13:45.657Z,5.35
2022-12-15T09:16:16.882Z,1.83
2022-12-15T09:18:46.733Z,2.50
2022-12-15T09:21:14.929Z,3.42
2022-12-15T09:23:43.025Z,2.92
2022-12-15T09:26:14.327Z,3.30
2022-12-15T09:28:45.183Z,1.73
2022-12-15T09:31:21.826Z,2.50
2022-12-15T09:33:51.727Z,2.28
2022-12-15T09:36:19.059Z,1.88
2022-12-15T09:38:46.062Z,3.03
2022-12-15T09:41:16.004Z,3.67
2022-12-15T09:44:14.560Z,3.80
2022-12-15T09:47:19.344Z,2.63
2022-12-15T09:49:57.790Z,1.85
2022-12-15T09:55:21.316Z,3.00
2022-12-15T09:58:35.196Z,2.08
2022-12-15T10:01:22.383Z,2.75
2022-12-15T10:04:34.182Z,1.88
2022-12-15T10:07:06.414Z,3.40
2022-12-15T10:09:33.456Z,3.95
2022-12-15T10:12:02.403Z,2.72
2022-12-15T10:14:39.240Z,3.10
2022-12-15T10:17:09.617Z,3.13
2022-12-15T10:19:36.606Z,2.55
2022-12-15T10:22:04.094Z,3.00
2022-12-15T10:27:33.003Z,6.53
2022-12-15T10:30:06.061Z,5.22
2022-12-15T10:32:42.752Z,6.85
2022-12-15T10:35:30.369Z,4.40
2022-12-15T10:38:22.217Z,3.58
2022-12-15T10:40:59.418Z,4.13
2022-12-15T10:43:41.911Z,4.80
2022-12-15T10:46:16.170Z,4.57
2022-12-15T10:48:48.579Z,9.27
2022-12-15T10:51:37.111Z,4.88
2022-12-15T10:54:09.918Z,4.05
2022-12-15T10:56:57.014Z,5.43
2022-12-15T10:59:38.448Z,4.90
2022-12-15T11:02:24.587Z,7.50
2022-12-15T11:05:16.790Z,3.65
2022-12-15T11:07:46.148Z,6.88
2022-12-15T11:10:19.319Z,5.55
2022-12-15T11:12:58.568Z,6.93
2022-12-15T11:15:31.918Z,4.90
2022-12-15T11:18:20.906Z,3.63
2022-12-15T11:20:53.179Z,2.67
2022-12-15T11:23:50.989Z,3.67
2022-12-15T11:26:39.209Z,3.22
2022-12-15T11:29:21.832Z,3.20
2022-12-15T11:31:49.623Z,4.85
2022-12-15T11:34:21.697Z,3.60
2022-12-15T11:36:51.707Z,4.18
2022-12-15T11:39:50.485Z,6.88
2022-12-15T11:42:43.760Z,2.85
2022-12-15T11:45:31.010Z,3.63
2022-12-15T11:48:14.277Z,3.60
2022-12-15T11:50:51.858Z,2.80
2022-12-15T11:54:02.033Z,7.13
2022-12-15T11:56:33.757Z,3.08
2022-12-15T11:59:25.559Z,4.57
2022-12-15T12:02:19.916Z,5.03
2022-12-15T12:05:18.063Z,3.88
2022-12-15T12:07:50.533Z,2.20
2022-12-15T12:10:26.759Z,3.95
2022-12-15T12:13:15.629Z,5.18
2022-12-15T12:16:09.436Z,2.65
2022-12-15T12:19:01.626Z,4.03
2022-12-15T12:21:44.064Z,2.67
2022-12-15T12:24:20.965Z,3.75
2022-12-15T12:27:02.174Z,2.08
2022-12-15T12:29:37.737Z,4.25
2022-12-15T12:32:05.460Z,2.65
2022-12-15T12:34:40.908Z,2.20
2022-12-15T12:37:24.343Z,3.50
2022-12-15T12:39:54.051Z,2.28
2022-12-15T12:42:48.477Z,4.32
2022-12-15T12:45:19.259Z,3.47
2022-12-15T12:47:52.321Z,3.17
2022-12-15T12:50:29.000Z,4.32
2022-12-15T12:53:02.876Z,3.08
2022-12-15T12:55:32.931Z,4.05
2022-12-15T12:57:59.961Z,3.67
2022-12-15T13:00:32.409Z,6.32
2022-12-15T13:03:20.000Z,1.63
2022-12-15T13:05:50.575Z,3.08
2022-12-15T13:08:28.750Z,3.95
2022-12-15T13:10:56.558Z,5.15
2022-12-15T13:13:29.599Z,3.95
2022-12-15T13:16:11.993Z,4.28
2022-12-15T13:19:03.818Z,3.95
2022-12-15T13:21:48.905Z,4.60
2022-12-15T13:24:28.834Z,6.63
2022-12-15T13:27:14.323Z,3.33
2022-12-15T13:29:57.365Z,3.88
2022-12-15T13:32:38.337Z,3.92
2022-12-15T13:35:21.357Z,3.90
2022-12-15T13:38:04.263Z,4.35
2022-12-15T13:40:50.861Z,4.93
2022-12-15T13:43:26.919Z,3.13
2022-12-15T13:45:57.625Z,4.78
2022-12-15T13:51:42.367Z,9.02
2022-12-15T13:54:15.549Z,3.45
2022-12-15T13:56:53.672Z,4.05
2022-12-15T13:59:33.944Z,4.97
2022-12-15T14:02:00.966Z,1.75
2022-12-15T14:04:28.085Z,5.07
2022-12-15T14:07:01.726Z,5.65
2022-12-15T14:09:41.039Z,6.47
2022-12-15T14:12:13.363Z,5.13
2022-12-15T14:14:49.262Z,6.82
2022-12-15T14:17:18.391Z,5.30
2022-12-15T14:19:50.951Z,4.05
2022-12-15T14:22:28.996Z,4.25
2022-12-15T14:25:13.547Z,4.53
2022-12-15T14:27:40.870Z,5.55
2022-12-15T14:30:22.810Z,3.22
2022-12-15T14:32:59.754Z,3.33
2022-12-15T14:35:36.837Z,4.18
2022-12-15T14:38:07.448Z,5.57
2022-12-15T14:40:37.774Z,4.28
2022-12-15T14:43:07.255Z,5.75
2022-12-15T14:45:34.392Z,3.72
2022-12-15T14:48:39.567Z,4.32
2022-12-15T14:50:54.736Z,3.55
2022-12-15T14:53:31.033Z,8.73
2022-12-15T14:56:00.790Z,4.07
2022-12-15T14:58:33.165Z,3.38
2022-12-15T15:01:02.118Z,4.25
2022-12-15T15:03:10.574Z,7.63
2022-12-15T15:06:31.561Z,4.03
2022-12-15T15:09:10.130Z,6.60
2022-12-15T15:11:39.065Z,6.60
2022-12-15T15:14:17.063Z,3.95
2022-12-15T15:16:45.042Z,4.82
2022-12-15T15:19:21.812Z,6.78
2022-12-15T15:21:49.057Z,7.93
2022-12-15T15:24:16.007Z,3.90
2022-12-15T15:26:45.843Z,5.57
2022-12-15T15:29:41.225Z,6.20
2022-12-15T15:32:18.654Z,5.30
2022-12-15T15:34:47.232Z,4.72
2022-12-15T15:39:47.954Z,6.78
2022-12-15T15:42:14.948Z,6.22
2022-12-15T15:44:42.102Z,5.75
2022-12-15T15:47:25.606Z,7.32
2022-12-15T15:49:59.831Z,6.88
2022-12-15T15:52:29.697Z,6.43
2022-12-15T15:54:56.856Z,4.85
2022-12-15T15:57:23.908Z,6.97
2022-12-15T15:59:51.158Z,4.85
2022-12-15T16:02:18.391Z,6.90
2022-12-15T16:04:45.772Z,5.57
2022-12-15T16:07:28.879Z,8.38
2022-12-15T16:09:56.916Z,5.43
2022-12-15T16:12:28.605Z,6.55
2022-12-15T16:14:56.127Z,9.05
2022-12-15T16:17:23.698Z,9.25
2022-12-15T16:19:50.702Z,11.25
2022-12-15T16:22:20.396Z,12.82
2022-12-15T16:24:47.814Z,12.65
2022-12-15T16:27:15.705Z,10.55
2022-12-15T16:29:42.810Z,10.90
2022-12-15T16:32:12.289Z,9.80
2022-12-15T16:34:39.305Z,7.47
2022-12-15T16:37:13.478Z,6.82
2022-12-15T16:39:40.445Z,6.05
2022-12-15T16:42:12.278Z,7.18
2022-12-15T16:44:39.381Z,6.68
2022-12-15T16:47:06.284Z,8.13
2022-12-15T16:49:39.844Z,11.25
2022-12-15T16:52:18.407Z,8.05
2022-12-15T16:54:49.118Z,9.32
2022-12-15T16:57:16.196Z,8.13
2022-12-15T16:59:43.137Z,9.88
2022-12-15T17:02:29.298Z,8.98
2022-12-15T17:04:56.755Z,13.95
2022-12-15T17:07:27.051Z,9.40
2022-12-15T17:09:54.169Z,10.50
2022-12-15T17:12:21.171Z,11.88
2022-12-15T17:14:48.196Z,12.82
2022-12-15T17:17:17.098Z,10.85
2022-12-15T17:20:11.810Z,11.43
2022-12-15T17:22:32.838Z,12.05
2022-12-15T17:25:00.432Z,11.30
2022-12-15T17:27:29.676Z,12.18
2022-12-15T17:29:59.120Z,15.02
2022-12-15T17:32:26.883Z,12.02
2022-12-15T17:34:53.940Z,13.63
2022-12-15T17:37:21.022Z,15.68
2022-12-15T17:39:51.444Z,14.82
2022-12-15T17:42:20.567Z,13.85
2022-12-15T17:44:48.633Z,13.27
2022-12-15T17:47:16.775Z,13.25
2022-12-15T17:49:44.088Z,19.63
2022-12-15T17:52:17.257Z,12.45
2022-12-15T17:54:44.328Z,12.55
2022-12-15T17:57:14.405Z,17.02
2022-12-15T17:59:41.448Z,12.77
2022-12-15T18:02:28.905Z,11.85
2022-12-15T18:04:56.161Z,12.10
2022-12-15T18:07:24.199Z,11.07
2022-12-15T18:09:52.443Z,13.82
2022-12-15T18:12:21.899Z,11.30
2022-12-15T18:14:49.315Z,11.68
2022-12-15T18:17:16.444Z,14.73
2022-12-15T18:19:43.437Z,14.02
2022-12-15T18:22:16.842Z,11.57
2022-12-15T18:24:43.916Z,14.85
2022-12-15T18:27:25.362Z,13.20
2022-12-15T18:29:53.012Z,10.38
2022-12-15T18:32:23.520Z,12.70
2022-12-15T18:34:50.694Z,11.38
2022-12-15T18:37:19.674Z,10.95
2022-12-15T18:39:47.328Z,10.80
2022-12-15T18:42:16.260Z,10.63
2022-12-15T18:44:48.581Z,12.07
2022-12-15T18:47:21.117Z,13.98
2022-12-15T18:49:48.551Z,11.93
2022-12-15T18:52:18.469Z,13.20
2022-12-15T18:54:47.186Z,12.20
2022-12-15T18:57:32.144Z,9.80
2022-12-15T19:00:26.054Z,11.77
2022-12-15T19:02:55.117Z,13.05
2022-12-15T19:05:32.697Z,16.58
2022-12-15T19:08:03.888Z,13.02
2022-12-15T19:10:34.213Z,12.07
2022-12-15T19:13:01.350Z,11.27
2022-12-15T19:15:28.879Z,13.55
2022-12-15T19:18:14.543Z,10.55
2022-12-15T19:21:01.212Z,8.48
2022-12-15T19:23:28.279Z,9.80
2022-12-15T19:25:55.395Z,8.60
2022-12-15T19:28:23.655Z,7.78
2022-12-15T19:30:52.137Z,7.22
2022-12-15T19:33:19.591Z,8.05
2022-12-15T19:35:51.043Z,10.30
2022-12-15T19:38:25.656Z,12.07
2022-12-15T19:40:53.785Z,10.50
2022-12-15T19:43:22.628Z,11.70
2022-12-15T19:45:52.019Z,9.98
2022-12-15T19:48:23.346Z,10.90
2022-12-15T19:50:52.259Z,8.88
2022-12-15T19:53:31.235Z,9.40
2022-12-15T19:56:01.760Z,8.50
2022-12-15T19:58:34.650Z,10.30
2022-12-15T20:01:06.916Z,13.73
2022-12-15T20:03:35.415Z,8.32
2022-12-15T20:06:04.382Z,10.73
2022-12-15T20:08:37.914Z,9.23
2022-12-15T20:11:05.198Z,7.05
2022-12-15T20:13:32.674Z,9.63
2022-12-15T20:15:59.910Z,8.77
2022-12-15T20:18:27.059Z,8.80
2022-12-15T20:20:54.193Z,8.30
2022-12-15T20:23:29.446Z,10.85
2022-12-15T20:25:57.239Z,8.43
2022-12-15T20:28:27.589Z,8.45
2022-12-15T20:30:56.307Z,9.55
2022-12-15T20:33:23.910Z,9.52
2022-12-15T20:35:50.994Z,8.07
2022-12-15T20:38:21.052Z,9.68
2022-12-15T20:40:48.579Z,10.25
2022-12-15T20:43:17.760Z,8.70
2022-12-15T20:45:47.699Z,8.90
2022-12-15T20:48:16.317Z,8.45
2022-12-15T20:50:49.147Z,7.47
2022-12-15T20:53:22.909Z,7.50
2022-12-15T20:55:51.561Z,8.65
2022-12-15T20:58:19.656Z,9.18
2022-12-15T21:00:48.576Z,6.85
2022-12-15T21:03:33.108Z,9.00
2022-12-15T21:06:00.587Z,5.97
2022-12-15T21:08:30.893Z,6.63
2022-12-15T21:11:02.590Z,8.20
2022-12-15T21:13:33.359Z,6.65
2022-12-15T21:16:00.834Z,7.45
2022-12-15T21:21:22.974Z,6.50
2022-12-15T21:23:50.149Z,4.90
2022-12-15T21:26:23.102Z,7.15
2022-12-15T21:28:54.282Z,6.85
2022-12-15T21:31:22.154Z,6.40
2022-12-15T21:33:49.370Z,7.50
2022-12-15T21:36:18.560Z,7.07
2022-12-15T21:38:51.766Z,7.18
2022-12-15T21:41:20.875Z,6.40
2022-12-15T21:43:49.003Z,5.03
2022-12-15T21:46:20.590Z,7.93
2022-12-15T21:49:09.014Z,8.05
2022-12-15T21:51:39.325Z,8.60
2022-12-15T21:54:13.936Z,5.53
2022-12-15T21:56:40.961Z,7.70
2022-12-15T21:59:22.130Z,5.72
2022-12-15T22:01:50.052Z,7.90
2022-12-15T22:04:25.737Z,8.15
2022-12-15T22:06:55.881Z,6.68
2022-12-15T22:09:22.975Z,10.73
2022-12-15T22:11:53.820Z,13.05
2022-12-15T22:14:33.527Z,15.68
2022-12-15T22:17:16.356Z,14.02
2022-12-15T22:19:44.096Z,17.85
2022-12-15T22:22:12.126Z,15.30
2022-12-15T22:24:39.439Z,14.80
2022-12-15T22:27:21.689Z,11.45
2022-12-15T22:29:50.177Z,10.70
2022-12-15T22:32:17.537Z,9.93
2022-12-15T22:34:44.626Z,9.30
2022-12-15T22:37:11.631Z,6.10
2022-12-15T22:39:38.585Z,7.40
2022-12-15T22:42:06.240Z,8.50
2022-12-15T22:44:37.256Z,5.17
2022-12-15T22:47:04.811Z,6.47
2022-12-15T22:49:37.676Z,5.82
2022-12-15T22:52:16.303Z,4.88
2022-12-15T22:54:45.703Z,7.68
2022-12-15T22:57:29.597Z,6.63
2022-12-15T23:00:05.686Z,5.93
2022-12-15T23:02:36.316Z,4.68
2022-12-15T23:05:05.086Z,6.22
2022-12-15T23:07:33.924Z,7.40
2022-12-15T23:10:26.869Z,4.53
2022-12-15T23:12:54.649Z,6.93
2022-12-15T23:15:45.336Z,5.47
2022-12-15T23:18:13.624Z,5.80
2022-12-15T23:20:41.261Z,5.65
2022-12-15T23:23:09.709Z,6.20
2022-12-15T23:28:04.075Z,4.30
2022-12-15T23:30:31.248Z,5.93
2022-12-15T23:32:58.263Z,6.68
2022-12-15T23:35:25.265Z,6.25
2022-12-15T23:37:52.360Z,6.28
2022-12-15T23:40:22.271Z,6.57
2022-12-15T23:42:50.488Z,5.65
2022-12-15T23:45:18.429Z,3.88
2022-12-15T23:47:45.669Z,3.38
2022-12-15T23:50:12.783Z,5.90
2022-12-15T23:52:40.647Z,3.40
2022-12-15T23:55:10.847Z,4.18
2022-12-15T23:57:39.371Z,6.10
